Sd416 Nippon — SKPF — position and weather

sailwx.info

Track history (hours):
 
Tides and Currents Weather Stations Pressure Air Temp Water Temp Dewpoint Dewpoint Depression Visibility Wind Speed Wind Dir Waves Ship Positions

Sd416 Nippon

Last reported at 2014-Sep-30 15:33 UTC. Time now 2014-Sep-30 16:04 UTC.
Position N 58°25' E 010°30'.

Length 17 m; draft 2.5 m.

Type: Fishing. MMSI: 266163000.

Date/timePositionNaut miles runAvg speedWind from/ knotsBaromVisibWave heightAir tempDewpointWater temp
2014-Sep-30 15:33N 58°25' E 010°30'2 2.2
2014-Sep-30 14:33N 58°28' E 010°30'10 8.3
2014-Sep-30 13:20N 58°37' E 010°24'0 0.2
2014-Sep-30 12:33N 58°37' E 010°24'1 1.4
2014-Sep-30 11:33N 58°36' E 010°25'1 1.4
2014-Sep-30 10:33N 58°35' E 010°27'1 1.3
2014-Sep-30 09:33N 58°34' E 010°27'1 1.3
2014-Sep-30 08:33N 58°32' E 010°28'1 1.4
2014-Sep-30 07:33N 58°31' E 010°29'1 1.4
2014-Sep-30 06:33N 58°30' E 010°30'1 1.4
2014-Sep-30 05:33N 58°29' E 010°31'1 1.3
2014-Sep-30 04:33N 58°28' E 010°32'4 3.8
2014-Sep-30 03:33N 58°31' E 010°32'7 7.3
2014-Sep-30 02:33N 58°39' E 010°35'11 2.7
2014-Sep-29 22:25N 58°49' E 010°43'2 1.2
2014-Sep-29 20:33N 58°51' E 010°43'1 1.3
2014-Sep-29 19:33N 58°52' E 010°43'1 1.4
2014-Sep-29 18:33N 58°51' E 010°43'1 1.3
2014-Sep-29 17:33N 58°50' E 010°43'2 1.5
2014-Sep-29 16:33N 58°48' E 010°43'2 1.7
2014-Sep-29 15:32N 58°46' E 010°44'4 0.4
2014-Sep-29 07:24N 58°50' E 010°43'1 1.4
2014-Sep-29 06:32N 58°49' E 010°43'1 1.3
2014-Sep-29 05:30N 58°48' E 010°43'1 1.3
2014-Sep-29 04:33N 58°46' E 010°44'10 4.2
2014-Sep-29 02:15N 58°54' E 010°55'4 6.0
2014-Sep-29 01:33N 58°56' E 011°02'  
2014-Sep-26 07:12N 58°56' E 011°10'  
Track history (hours):
 
Tides and Currents Weather Stations Pressure Air Temp Water Temp Dewpoint Dewpoint Depression Visibility Wind Speed Wind Dir Waves Ship Positions

Sd416 Nippon

Last reported at 2014-Sep-30 15:33 UTC. Time now 2014-Sep-30 16:04 UTC.
Position N 58°25' E 010°30'.

Length 17 m; draft 2.5 m.

Type: Fishing. MMSI: 266163000.

Date/timePositionNaut miles runAvg speedWind from/ knotsBaromVisibWave heightAir tempDewpointWater temp
2014-Sep-30 15:33N 58°25' E 010°30'2 2.2
2014-Sep-30 14:33N 58°28' E 010°30'10 8.3
2014-Sep-30 13:20N 58°37' E 010°24'0 0.2
2014-Sep-30 12:33N 58°37' E 010°24'1 1.4
2014-Sep-30 11:33N 58°36' E 010°25'1 1.4
2014-Sep-30 10:33N 58°35' E 010°27'1 1.3
2014-Sep-30 09:33N 58°34' E 010°27'1 1.3
2014-Sep-30 08:33N 58°32' E 010°28'1 1.4
2014-Sep-30 07:33N 58°31' E 010°29'1 1.4
2014-Sep-30 06:33N 58°30' E 010°30'1 1.4
2014-Sep-30 05:33N 58°29' E 010°31'1 1.3
2014-Sep-30 04:33N 58°28' E 010°32'4 3.8
2014-Sep-30 03:33N 58°31' E 010°32'7 7.3
2014-Sep-30 02:33N 58°39' E 010°35'11 2.7
2014-Sep-29 22:25N 58°49' E 010°43'2 1.2
2014-Sep-29 20:33N 58°51' E 010°43'1 1.3
2014-Sep-29 19:33N 58°52' E 010°43'1 1.4
2014-Sep-29 18:33N 58°51' E 010°43'1 1.3
2014-Sep-29 17:33N 58°50' E 010°43'2 1.5
2014-Sep-29 16:33N 58°48' E 010°43'2 1.7
2014-Sep-29 15:32N 58°46' E 010°44'4 0.4
2014-Sep-29 07:24N 58°50' E 010°43'1 1.4
2014-Sep-29 06:32N 58°49' E 010°43'1 1.3
2014-Sep-29 05:30N 58°48' E 010°43'1 1.3
2014-Sep-29 04:33N 58°46' E 010°44'10 4.2
2014-Sep-29 02:15N 58°54' E 010°55'4 6.0
2014-Sep-29 01:33N 58°56' E 011°02'  
2014-Sep-26 07:12N 58°56' E 011°10'  

Dump ship's entire track history